MSC Azov — 9HA3457 — position and weather

sailwx.info

Track history (hours):
 
Tides and Currents Weather Stations Pressure Air Temp Water Temp Dewpoint Dewpoint Depression Visibility Wind Speed Wind Dir Waves Ship Positions

MSC Azov

Last reported at 2017-Sep-15 15:54 UTC. Time now 2017-Sep-23 00:14 UTC.
Position S 25°39' W 047°46'.

Length 300 m; draft 9.5 m.

Type: Ship (hazmat cat A). MMSI: 229620000.

Date/timePositionNaut miles runAvg speedWind from/ knotsBaromVisibWave heightAir tempDewpointWater temp
2017-Sep-15 15:54S 25°39' W 047°46'511.6
2017-Sep-15 15:30S 25°36' W 047°43'811.7
2017-Sep-15 14:51S 25°31' W 047°37'511.5
2017-Sep-15 14:27S 25°27' W 047°33'911.6
2017-Sep-15 13:39S 25°21' W 047°26'311.9
2017-Sep-15 13:24S 25°19' W 047°24'511.9
2017-Sep-15 13:00S 25°15' W 047°20'612.0
2017-Sep-15 12:30S 25°11' W 047°15'612.2
2017-Sep-15 12:00S 25°07' W 047°11'612.5
2017-Sep-15 11:30S 25°02' W 047°06'612.6
2017-Sep-15 11:00S 24°58' W 047°00'612.7
2017-Sep-15 10:30S 24°54' W 046°55'612.6
2017-Sep-15 10:00S 24°49' W 046°51'612.8
2017-Sep-15 09:30S 24°44' W 046°46'612.8
2017-Sep-15 09:00S 24°40' W 046°42'612.9
2017-Sep-15 08:30S 24°35' W 046°37'612.8
2017-Sep-15 08:00S 24°30' W 046°32'612.4
2017-Sep-15 07:30S 24°25' W 046°29'612.5
2017-Sep-15 07:00S 24°19' W 046°27'612.6
2017-Sep-15 06:30S 24°13' W 046°25'612.6
2017-Sep-15 06:00S 24°07' W 046°23'611.8
2017-Sep-15 05:30S 24°01' W 046°21'4 7.6
2017-Sep-15 05:00S 23°59' W 046°17'4 7.9
2017-Sep-15 04:27S 23°55' W 046°20'1 1.2
2017-Sep-15 03:58S 23°55' W 046°21'0 0.0
2017-Sep-15 03:30S 23°55' W 046°21'0 0.0
2017-Sep-15 01:36S 23°55' W 046°21'0 0.0
2017-Sep-15 00:21S 23°55' W 046°21'0 0.0
2017-Sep-15 00:00S 23°55' W 046°21'0 0.0
2017-Sep-14 23:06S 23°55' W 046°21'0 0.0
2017-Sep-14 12:00S 23°55' W 046°21'0 0.0
2017-Sep-14 11:24S 23°55' W 046°21'0 0.0
2017-Sep-14 10:42S 23°55' W 046°21'0 0.0
2017-Sep-14 09:42S 23°55' W 046°21'0 0.0
2017-Sep-14 08:47S 23°55' W 046°21'0 0.0
2017-Sep-14 06:29S 23°55' W 046°21'0 0.0
2017-Sep-14 03:14S 23°55' W 046°21'0 0.0
2017-Sep-13 22:24S 23°55' W 046°21'2 5.9
2017-Sep-13 21:59S 23°56' W 046°19'3 7.1
2017-Sep-13 21:30S 23°59' W 046°18'4 8.2
2017-Sep-13 21:00S 24°02' W 046°21'5 9.2
2017-Sep-13 20:30S 24°07' W 046°23'4 8.0
2017-Sep-13 20:00S 24°11' W 046°23'0 0.5
2017-Sep-13 19:30S 24°10' W 046°23'2 4.2
2017-Sep-13 19:00S 24°12' W 046°22'5 9.7
2017-Sep-13 18:30S 24°16' W 046°18'510.3
2017-Sep-13 18:00S 24°15' W 046°12'510.4
2017-Sep-13 17:30S 24°15' W 046°07'510.7
2017-Sep-13 17:00S 24°16' W 046°01'611.4
2017-Sep-13 16:30S 24°17' W 045°54'611.5
2017-Sep-13 15:59S 24°18' W 045°48'611.7
2017-Sep-13 15:30S 24°19' W 045°42'711.9
2017-Sep-13 14:56S 24°20' W 045°35'511.8
2017-Sep-13 14:30S 24°20' W 045°29'711.7
2017-Sep-13 13:57S 24°18' W 045°22'1611.8
2017-Sep-13 12:35S 24°14' W 045°05'112.2
2017-Sep-13 12:29S 24°13' W 045°04'  
Track history (hours):
 
Tides and Currents Weather Stations Pressure Air Temp Water Temp Dewpoint Dewpoint Depression Visibility Wind Speed Wind Dir Waves Ship Positions

MSC Azov

Last reported at 2017-Sep-15 15:54 UTC. Time now 2017-Sep-23 00:14 UTC.
Position S 25°39' W 047°46'.

Length 300 m; draft 9.5 m.

Type: Ship (hazmat cat A). MMSI: 229620000.

Date/timePositionNaut miles runAvg speedWind from/ knotsBaromVisibWave heightAir tempDewpointWater temp
2017-Sep-15 15:54S 25°39' W 047°46'511.6
2017-Sep-15 15:30S 25°36' W 047°43'811.7
2017-Sep-15 14:51S 25°31' W 047°37'511.5
2017-Sep-15 14:27S 25°27' W 047°33'911.6
2017-Sep-15 13:39S 25°21' W 047°26'311.9
2017-Sep-15 13:24S 25°19' W 047°24'511.9
2017-Sep-15 13:00S 25°15' W 047°20'612.0
2017-Sep-15 12:30S 25°11' W 047°15'612.2
2017-Sep-15 12:00S 25°07' W 047°11'612.5
2017-Sep-15 11:30S 25°02' W 047°06'612.6
2017-Sep-15 11:00S 24°58' W 047°00'612.7
2017-Sep-15 10:30S 24°54' W 046°55'612.6
2017-Sep-15 10:00S 24°49' W 046°51'612.8
2017-Sep-15 09:30S 24°44' W 046°46'612.8
2017-Sep-15 09:00S 24°40' W 046°42'612.9
2017-Sep-15 08:30S 24°35' W 046°37'612.8
2017-Sep-15 08:00S 24°30' W 046°32'612.4
2017-Sep-15 07:30S 24°25' W 046°29'612.5
2017-Sep-15 07:00S 24°19' W 046°27'612.6
2017-Sep-15 06:30S 24°13' W 046°25'612.6
2017-Sep-15 06:00S 24°07' W 046°23'611.8
2017-Sep-15 05:30S 24°01' W 046°21'4 7.6
2017-Sep-15 05:00S 23°59' W 046°17'4 7.9
2017-Sep-15 04:27S 23°55' W 046°20'1 1.2
2017-Sep-15 03:58S 23°55' W 046°21'0 0.0
2017-Sep-15 03:30S 23°55' W 046°21'0 0.0
2017-Sep-15 01:36S 23°55' W 046°21'0 0.0
2017-Sep-15 00:21S 23°55' W 046°21'0 0.0
2017-Sep-15 00:00S 23°55' W 046°21'0 0.0
2017-Sep-14 23:06S 23°55' W 046°21'0 0.0
2017-Sep-14 12:00S 23°55' W 046°21'0 0.0
2017-Sep-14 11:24S 23°55' W 046°21'0 0.0
2017-Sep-14 10:42S 23°55' W 046°21'0 0.0
2017-Sep-14 09:42S 23°55' W 046°21'0 0.0
2017-Sep-14 08:47S 23°55' W 046°21'0 0.0
2017-Sep-14 06:29S 23°55' W 046°21'0 0.0
2017-Sep-14 03:14S 23°55' W 046°21'0 0.0
2017-Sep-13 22:24S 23°55' W 046°21'2 5.9
2017-Sep-13 21:59S 23°56' W 046°19'3 7.1
2017-Sep-13 21:30S 23°59' W 046°18'4 8.2
2017-Sep-13 21:00S 24°02' W 046°21'5 9.2
2017-Sep-13 20:30S 24°07' W 046°23'4 8.0
2017-Sep-13 20:00S 24°11' W 046°23'0 0.5
2017-Sep-13 19:30S 24°10' W 046°23'2 4.2
2017-Sep-13 19:00S 24°12' W 046°22'5 9.7
2017-Sep-13 18:30S 24°16' W 046°18'510.3
2017-Sep-13 18:00S 24°15' W 046°12'510.4
2017-Sep-13 17:30S 24°15' W 046°07'510.7
2017-Sep-13 17:00S 24°16' W 046°01'611.4
2017-Sep-13 16:30S 24°17' W 045°54'611.5
2017-Sep-13 15:59S 24°18' W 045°48'611.7
2017-Sep-13 15:30S 24°19' W 045°42'711.9
2017-Sep-13 14:56S 24°20' W 045°35'511.8
2017-Sep-13 14:30S 24°20' W 045°29'711.7
2017-Sep-13 13:57S 24°18' W 045°22'1611.8
2017-Sep-13 12:35S 24°14' W 045°05'112.2
2017-Sep-13 12:29S 24°13' W 045°04'  

Dump ship's entire track history